sensor_id;sensor_type;location;lat;lon;timestamp;temperature;humidity
23991;DHT22;12205;50.600;4.608;2022-07-29T00:02:10;20.00;99.90
23991;DHT22;12205;50.600;4.608;2022-07-29T00:04:37;20.00;99.90
23991;DHT22;12205;50.600;4.608;2022-07-29T00:07:05;20.00;99.90
23991;DHT22;12205;50.600;4.608;2022-07-29T00:09:36;20.00;99.90
23991;DHT22;12205;50.600;4.608;2022-07-29T00:12:06;20.00;99.90
23991;DHT22;12205;50.600;4.608;2022-07-29T00:14:47;19.90;99.90
23991;DHT22;12205;50.600;4.608;2022-07-29T00:17:33;20.00;99.90
23991;DHT22;12205;50.600;4.608;2022-07-29T00:20:03;20.00;99.90
23991;DHT22;12205;50.600;4.608;2022-07-29T00:22:32;20.00;99.90
23991;DHT22;12205;50.600;4.608;2022-07-29T00:25:04;19.90;99.90
23991;DHT22;12205;50.600;4.608;2022-07-29T00:27:51;19.80;99.90
23991;DHT22;12205;50.600;4.608;2022-07-29T00:30:20;19.80;99.90
23991;DHT22;12205;50.600;4.608;2022-07-29T00:36:01;19.70;99.90
23991;DHT22;12205;50.600;4.608;2022-07-29T00:38:35;19.60;99.90
23991;DHT22;12205;50.600;4.608;2022-07-29T00:41:07;19.60;99.90
23991;DHT22;12205;50.600;4.608;2022-07-29T00:43:34;19.60;99.90
23991;DHT22;12205;50.600;4.608;2022-07-29T00:46:03;19.60;99.90
23991;DHT22;12205;50.600;4.608;2022-07-29T00:48:31;19.60;99.90
23991;DHT22;12205;50.600;4.608;2022-07-29T00:51:03;19.60;99.90
23991;DHT22;12205;50.600;4.608;2022-07-29T00:53:36;19.60;99.90
23991;DHT22;12205;50.600;4.608;2022-07-29T00:56:06;19.50;99.90
23991;DHT22;12205;50.600;4.608;2022-07-29T00:58:33;19.50;99.90
23991;DHT22;12205;50.600;4.608;2022-07-29T01:01:05;19.50;99.90
23991;DHT22;12205;50.600;4.608;2022-07-29T01:03:33;19.50;99.90
23991;DHT22;12205;50.600;4.608;2022-07-29T01:06:01;19.40;99.90
23991;DHT22;12205;50.600;4.608;2022-07-29T01:08:30;19.40;99.90
23991;DHT22;12205;50.600;4.608;2022-07-29T01:11:00;19.30;99.90
23991;DHT22;12205;50.600;4.608;2022-07-29T01:13:32;19.30;99.90
23991;DHT22;12205;50.600;4.608;2022-07-29T01:16:15;19.20;99.90
23991;DHT22;12205;50.600;4.608;2022-07-29T01:18:59;19.20;99.90
23991;DHT22;12205;50.600;4.608;2022-07-29T01:21:50;19.20;99.90
23991;DHT22;12205;50.600;4.608;2022-07-29T01:24:33;19.10;99.90
23991;DHT22;12205;50.600;4.608;2022-07-29T01:27:26;19.00;99.90
23991;DHT22;12205;50.600;4.608;2022-07-29T01:30:07;19.00;99.90
23991;DHT22;12205;50.600;4.608;2022-07-29T01:32:37;19.00;99.90
23991;DHT22;12205;50.600;4.608;2022-07-29T01:35:10;18.90;99.90
23991;DHT22;12205;50.600;4.608;2022-07-29T01:37:47;18.90;99.90
23991;DHT22;12205;50.600;4.608;2022-07-29T01:40:22;18.90;99.90
23991;DHT22;12205;50.600;4.608;2022-07-29T01:42:56;18.80;99.90
23991;DHT22;12205;50.600;4.608;2022-07-29T01:45:34;18.80;99.90
23991;DHT22;12205;50.600;4.608;2022-07-29T01:48:10;18.70;99.90
23991;DHT22;12205;50.600;4.608;2022-07-29T01:50:47;18.70;99.90
23991;DHT22;12205;50.600;4.608;2022-07-29T01:53:23;18.70;99.90
23991;DHT22;12205;50.600;4.608;2022-07-29T01:55:57;18.60;99.90
23991;DHT22;12205;50.600;4.608;2022-07-29T01:58:28;18.60;99.90
23991;DHT22;12205;50.600;4.608;2022-07-29T02:01:00;18.60;99.90
23991;DHT22;12205;50.600;4.608;2022-07-29T02:03:30;18.60;99.90
23991;DHT22;12205;50.600;4.608;2022-07-29T02:06:01;18.50;99.90
23991;DHT22;12205;50.600;4.608;2022-07-29T02:08:32;18.60;99.90
23991;DHT22;12205;50.600;4.608;2022-07-29T02:11:04;18.60;99.90
23991;DHT22;12205;50.600;4.608;2022-07-29T02:13:34;18.60;99.90
23991;DHT22;12205;50.600;4.608;2022-07-29T02:16:06;18.60;99.90
23991;DHT22;12205;50.600;4.608;2022-07-29T02:18:41;18.60;99.90
23991;DHT22;12205;50.600;4.608;2022-07-29T02:21:12;18.50;99.90
23991;DHT22;12205;50.600;4.608;2022-07-29T02:23:44;18.50;99.90
23991;DHT22;12205;50.600;4.608;2022-07-29T02:26:14;18.50;99.90
23991;DHT22;12205;50.600;4.608;2022-07-29T02:28:44;18.40;99.90
23991;DHT22;12205;50.600;4.608;2022-07-29T02:31:15;18.40;99.90
23991;DHT22;12205;50.600;4.608;2022-07-29T02:33:46;18.20;99.90
23991;DHT22;12205;50.600;4.608;2022-07-29T02:36:15;18.20;99.90
23991;DHT22;12205;50.600;4.608;2022-07-29T02:38:44;18.10;99.90
23991;DHT22;12205;50.600;4.608;2022-07-29T02:41:20;18.10;99.90
23991;DHT22;12205;50.600;4.608;2022-07-29T02:43:54;18.10;99.90
23991;DHT22;12205;50.600;4.608;2022-07-29T02:46:30;18.10;99.90
23991;DHT22;12205;50.600;4.608;2022-07-29T02:49:04;18.10;99.90
23991;DHT22;12205;50.600;4.608;2022-07-29T02:51:41;18.00;99.90
23991;DHT22;12205;50.600;4.608;2022-07-29T02:54:20;18.00;99.90
23991;DHT22;12205;50.600;4.608;2022-07-29T02:56:53;17.90;99.90
23991;DHT22;12205;50.600;4.608;2022-07-29T02:59:26;17.90;99.90
23991;DHT22;12205;50.600;4.608;2022-07-29T03:01:58;17.90;99.90
23991;DHT22;12205;50.600;4.608;2022-07-29T03:04:27;17.80;99.90
23991;DHT22;12205;50.600;4.608;2022-07-29T03:06:58;17.80;99.90
23991;DHT22;12205;50.600;4.608;2022-07-29T03:09:27;17.70;99.90
23991;DHT22;12205;50.600;4.608;2022-07-29T03:11:57;17.70;99.90
23991;DHT22;12205;50.600;4.608;2022-07-29T03:14:25;17.60;99.90
23991;DHT22;12205;50.600;4.608;2022-07-29T03:16:53;17.50;99.90
23991;DHT22;12205;50.600;4.608;2022-07-29T03:19:22;17.40;99.90
23991;DHT22;12205;50.600;4.608;2022-07-29T03:21:49;17.40;99.90
23991;DHT22;12205;50.600;4.608;2022-07-29T03:24:27;17.30;99.90
23991;DHT22;12205;50.600;4.608;2022-07-29T03:26:56;17.30;99.90
23991;DHT22;12205;50.600;4.608;2022-07-29T03:29:25;17.20;99.90
23991;DHT22;12205;50.600;4.608;2022-07-29T03:31:53;17.20;99.90
23991;DHT22;12205;50.600;4.608;2022-07-29T03:34:22;17.10;99.90
23991;DHT22;12205;50.600;4.608;2022-07-29T03:36:49;17.10;99.90
23991;DHT22;12205;50.600;4.608;2022-07-29T03:39:20;17.00;99.90
23991;DHT22;12205;50.600;4.608;2022-07-29T03:41:51;17.00;99.90
23991;DHT22;12205;50.600;4.608;2022-07-29T03:44:22;16.90;99.90
23991;DHT22;12205;50.600;4.608;2022-07-29T03:46:54;16.80;99.90
23991;DHT22;12205;50.600;4.608;2022-07-29T03:49:26;16.70;99.90
23991;DHT22;12205;50.600;4.608;2022-07-29T03:51:54;16.70;99.90
23991;DHT22;12205;50.600;4.608;2022-07-29T03:54:22;16.70;99.90
23991;DHT22;12205;50.600;4.608;2022-07-29T03:56:50;16.60;99.90
23991;DHT22;12205;50.600;4.608;2022-07-29T03:59:20;16.60;99.90
23991;DHT22;12205;50.600;4.608;2022-07-29T04:01:49;16.50;99.90
23991;DHT22;12205;50.600;4.608;2022-07-29T04:04:17;16.50;99.90
23991;DHT22;12205;50.600;4.608;2022-07-29T04:06:46;16.40;99.90
23991;DHT22;12205;50.600;4.608;2022-07-29T04:09:13;16.40;99.90
23991;DHT22;12205;50.600;4.608;2022-07-29T04:11:41;16.30;99.90
23991;DHT22;12205;50.600;4.608;2022-07-29T04:14:09;16.30;99.90
23991;DHT22;12205;50.600;4.608;2022-07-29T04:16:36;16.30;99.90
23991;DHT22;12205;50.600;4.608;2022-07-29T04:19:03;16.20;99.90
23991;DHT22;12205;50.600;4.608;2022-07-29T04:21:30;16.20;99.90
23991;DHT22;12205;50.600;4.608;2022-07-29T04:23:59;16.20;99.90
23991;DHT22;12205;50.600;4.608;2022-07-29T04:26:26;16.10;99.90
23991;DHT22;12205;50.600;4.608;2022-07-29T04:28:53;16.10;99.90
23991;DHT22;12205;50.600;4.608;2022-07-29T04:31:21;16.10;99.90
23991;DHT22;12205;50.600;4.608;2022-07-29T04:33:48;16.00;99.90
23991;DHT22;12205;50.600;4.608;2022-07-29T04:36:15;16.00;99.90
23991;DHT22;12205;50.600;4.608;2022-07-29T04:38:42;16.00;99.90
23991;DHT22;12205;50.600;4.608;2022-07-29T04:41:11;16.00;99.90
23991;DHT22;12205;50.600;4.608;2022-07-29T04:43:38;16.00;99.90
23991;DHT22;12205;50.600;4.608;2022-07-29T04:46:06;16.00;99.90
23991;DHT22;12205;50.600;4.608;2022-07-29T04:48:33;16.00;99.90
23991;DHT22;12205;50.600;4.608;2022-07-29T04:51:00;16.00;99.90
23991;DHT22;12205;50.600;4.608;2022-07-29T04:53:28;16.00;99.90
23991;DHT22;12205;50.600;4.608;2022-07-29T04:55:55;16.00;99.90
23991;DHT22;12205;50.600;4.608;2022-07-29T04:58:23;16.00;99.90
23991;DHT22;12205;50.600;4.608;2022-07-29T05:00:51;16.00;99.90
23991;DHT22;12205;50.600;4.608;2022-07-29T05:03:18;16.00;99.90
23991;DHT22;12205;50.600;4.608;2022-07-29T05:05:46;16.00;99.90
23991;DHT22;12205;50.600;4.608;2022-07-29T05:08:13;16.00;99.90
23991;DHT22;12205;50.600;4.608;2022-07-29T05:10:40;16.00;99.90
23991;DHT22;12205;50.600;4.608;2022-07-29T05:13:07;16.10;99.90
23991;DHT22;12205;50.600;4.608;2022-07-29T05:15:36;16.10;99.90
23991;DHT22;12205;50.600;4.608;2022-07-29T05:18:04;16.10;99.90
23991;DHT22;12205;50.600;4.608;2022-07-29T05:20:32;16.20;99.90
23991;DHT22;12205;50.600;4.608;2022-07-29T05:23:00;16.20;99.90
23991;DHT22;12205;50.600;4.608;2022-07-29T05:25:29;16.20;99.90
23991;DHT22;12205;50.600;4.608;2022-07-29T05:27:57;16.20;99.90
23991;DHT22;12205;50.600;4.608;2022-07-29T05:30:24;16.30;99.90
23991;DHT22;12205;50.600;4.608;2022-07-29T05:32:53;16.30;99.90
23991;DHT22;12205;50.600;4.608;2022-07-29T05:35:20;16.40;99.90
23991;DHT22;12205;50.600;4.608;2022-07-29T05:37:47;16.40;99.90
23991;DHT22;12205;50.600;4.608;2022-07-29T05:40:14;16.50;99.90
23991;DHT22;12205;50.600;4.608;2022-07-29T05:42:41;16.50;99.90
23991;DHT22;12205;50.600;4.608;2022-07-29T05:45:09;16.60;99.90
23991;DHT22;12205;50.600;4.608;2022-07-29T05:47:37;16.60;99.90
23991;DHT22;12205;50.600;4.608;2022-07-29T05:50:07;16.60;99.90
23991;DHT22;12205;50.600;4.608;2022-07-29T05:52:35;16.70;99.90
23991;DHT22;12205;50.600;4.608;2022-07-29T05:55:02;16.80;99.90
23991;DHT22;12205;50.600;4.608;2022-07-29T05:57:31;16.80;99.90
23991;DHT22;12205;50.600;4.608;2022-07-29T05:59:59;16.90;99.90
23991;DHT22;12205;50.600;4.608;2022-07-29T06:02:26;16.90;99.90
23991;DHT22;12205;50.600;4.608;2022-07-29T06:04:53;16.90;99.90
23991;DHT22;12205;50.600;4.608;2022-07-29T06:07:22;17.00;99.90
23991;DHT22;12205;50.600;4.608;2022-07-29T06:09:49;17.10;99.90
23991;DHT22;12205;50.600;4.608;2022-07-29T06:12:16;17.10;99.90
23991;DHT22;12205;50.600;4.608;2022-07-29T06:14:43;17.20;99.90
23991;DHT22;12205;50.600;4.608;2022-07-29T06:17:10;17.20;99.90
23991;DHT22;12205;50.600;4.608;2022-07-29T06:19:38;17.30;99.90
23991;DHT22;12205;50.600;4.608;2022-07-29T06:22:05;17.40;99.90
23991;DHT22;12205;50.600;4.608;2022-07-29T06:24:36;17.40;99.90
23991;DHT22;12205;50.600;4.608;2022-07-29T06:27:07;17.50;99.90
23991;DHT22;12205;50.600;4.608;2022-07-29T06:29:35;17.50;99.90
23991;DHT22;12205;50.600;4.608;2022-07-29T06:32:02;17.60;99.90
23991;DHT22;12205;50.600;4.608;2022-07-29T06:34:30;17.70;99.90
23991;DHT22;12205;50.600;4.608;2022-07-29T06:36:57;17.70;99.90
23991;DHT22;12205;50.600;4.608;2022-07-29T06:39:24;17.80;99.90
23991;DHT22;12205;50.600;4.608;2022-07-29T06:41:52;17.90;99.90
23991;DHT22;12205;50.600;4.608;2022-07-29T06:44:24;17.90;99.90
23991;DHT22;12205;50.600;4.608;2022-07-29T06:46:51;17.90;99.90
23991;DHT22;12205;50.600;4.608;2022-07-29T06:49:20;17.90;99.90
23991;DHT22;12205;50.600;4.608;2022-07-29T06:51:47;18.00;99.90
23991;DHT22;12205;50.600;4.608;2022-07-29T06:54:14;18.10;99.90
23991;DHT22;12205;50.600;4.608;2022-07-29T06:56:41;18.10;99.90
23991;DHT22;12205;50.600;4.608;2022-07-29T06:59:11;18.10;99.90
23991;DHT22;12205;50.600;4.608;2022-07-29T07:01:40;18.10;99.90
23991;DHT22;12205;50.600;4.608;2022-07-29T07:04:10;18.20;99.90
23991;DHT22;12205;50.600;4.608;2022-07-29T07:06:38;18.30;99.90
23991;DHT22;12205;50.600;4.608;2022-07-29T07:09:05;18.30;99.90
23991;DHT22;12205;50.600;4.608;2022-07-29T07:11:32;18.40;99.90
23991;DHT22;12205;50.600;4.608;2022-07-29T07:14:00;18.50;99.90
23991;DHT22;12205;50.600;4.608;2022-07-29T07:16:38;18.50;99.90
23991;DHT22;12205;50.600;4.608;2022-07-29T07:19:05;18.50;99.90
23991;DHT22;12205;50.600;4.608;2022-07-29T07:21:33;18.60;99.90
23991;DHT22;12205;50.600;4.608;2022-07-29T07:24:01;18.60;99.90
23991;DHT22;12205;50.600;4.608;2022-07-29T07:26:28;18.70;99.90
23991;DHT22;12205;50.600;4.608;2022-07-29T07:28:55;18.70;99.90
23991;DHT22;12205;50.600;4.608;2022-07-29T07:31:24;18.80;99.90
23991;DHT22;12205;50.600;4.608;2022-07-29T07:33:51;18.90;99.90
23991;DHT22;12205;50.600;4.608;2022-07-29T07:36:18;19.00;99.90
23991;DHT22;12205;50.600;4.608;2022-07-29T07:38:46;19.00;99.90
23991;DHT22;12205;50.600;4.608;2022-07-29T07:41:13;19.10;99.90
23991;DHT22;12205;50.600;4.608;2022-07-29T07:43:40;19.20;99.90
23991;DHT22;12205;50.600;4.608;2022-07-29T07:46:08;19.20;99.90
23991;DHT22;12205;50.600;4.608;2022-07-29T07:48:36;19.30;99.90
23991;DHT22;12205;50.600;4.608;2022-07-29T07:51:03;19.30;99.90
23991;DHT22;12205;50.600;4.608;2022-07-29T07:53:30;19.40;99.90
23991;DHT22;12205;50.600;4.608;2022-07-29T07:55:58;19.50;99.90
23991;DHT22;12205;50.600;4.608;2022-07-29T07:58:25;19.60;99.90
23991;DHT22;12205;50.600;4.608;2022-07-29T08:00:52;19.70;99.90
23991;DHT22;12205;50.600;4.608;2022-07-29T08:03:19;19.80;99.90
23991;DHT22;12205;50.600;4.608;2022-07-29T08:05:48;19.90;99.90
23991;DHT22;12205;50.600;4.608;2022-07-29T08:08:16;20.00;99.90
23991;DHT22;12205;50.600;4.608;2022-07-29T08:10:43;20.00;99.90
23991;DHT22;12205;50.600;4.608;2022-07-29T08:13:22;20.10;99.90
23991;DHT22;12205;50.600;4.608;2022-07-29T08:15:52;20.20;99.90
23991;DHT22;12205;50.600;4.608;2022-07-29T08:18:24;20.30;99.90
23991;DHT22;12205;50.600;4.608;2022-07-29T08:20:54;20.30;99.90
23991;DHT22;12205;50.600;4.608;2022-07-29T08:23:21;20.40;99.90
23991;DHT22;12205;50.600;4.608;2022-07-29T08:25:49;20.50;99.90
23991;DHT22;12205;50.600;4.608;2022-07-29T08:28:16;20.50;99.90
23991;DHT22;12205;50.600;4.608;2022-07-29T08:30:44;20.60;99.90
23991;DHT22;12205;50.600;4.608;2022-07-29T08:33:11;20.60;99.90
23991;DHT22;12205;50.600;4.608;2022-07-29T08:35:38;20.70;99.90
23991;DHT22;12205;50.600;4.608;2022-07-29T08:38:07;20.70;99.90
23991;DHT22;12205;50.600;4.608;2022-07-29T08:40:35;20.80;99.90
23991;DHT22;12205;50.600;4.608;2022-07-29T08:43:07;20.90;99.90
23991;DHT22;12205;50.600;4.608;2022-07-29T08:45:42;21.00;99.90
23991;DHT22;12205;50.600;4.608;2022-07-29T08:48:11;21.10;99.90
23991;DHT22;12205;50.600;4.608;2022-07-29T08:50:39;21.10;99.90
23991;DHT22;12205;50.600;4.608;2022-07-29T08:53:12;21.20;99.90
23991;DHT22;12205;50.600;4.608;2022-07-29T08:55:43;21.30;99.90
23991;DHT22;12205;50.600;4.608;2022-07-29T08:58:11;21.30;99.90
23991;DHT22;12205;50.600;4.608;2022-07-29T09:00:42;21.40;99.90
23991;DHT22;12205;50.600;4.608;2022-07-29T09:03:14;21.50;99.90
23991;DHT22;12205;50.600;4.608;2022-07-29T09:05:42;21.50;99.90
23991;DHT22;12205;50.600;4.608;2022-07-29T09:08:13;21.60;99.90
23991;DHT22;12205;50.600;4.608;2022-07-29T09:10:41;21.60;99.90
23991;DHT22;12205;50.600;4.608;2022-07-29T09:13:09;21.70;99.90
23991;DHT22;12205;50.600;4.608;2022-07-29T09:15:36;21.80;99.90
23991;DHT22;12205;50.600;4.608;2022-07-29T09:18:04;21.90;99.90
23991;DHT22;12205;50.600;4.608;2022-07-29T09:20:31;22.00;99.90
23991;DHT22;12205;50.600;4.608;2022-07-29T09:23:13;21.90;99.90
23991;DHT22;12205;50.600;4.608;2022-07-29T09:25:41;21.90;99.90
23991;DHT22;12205;50.600;4.608;2022-07-29T09:28:11;22.00;99.90
23991;DHT22;12205;50.600;4.608;2022-07-29T09:30:50;22.00;99.90
23991;DHT22;12205;50.600;4.608;2022-07-29T09:33:19;22.10;99.90
23991;DHT22;12205;50.600;4.608;2022-07-29T09:35:58;22.20;99.90
23991;DHT22;12205;50.600;4.608;2022-07-29T09:38:28;22.20;99.90
23991;DHT22;12205;50.600;4.608;2022-07-29T09:40:59;22.30;99.90
23991;DHT22;12205;50.600;4.608;2022-07-29T09:43:27;22.40;99.90
23991;DHT22;12205;50.600;4.608;2022-07-29T09:45:55;22.40;99.90
23991;DHT22;12205;50.600;4.608;2022-07-29T09:48:24;22.40;99.90
23991;DHT22;12205;50.600;4.608;2022-07-29T09:50:52;22.50;99.90
23991;DHT22;12205;50.600;4.608;2022-07-29T09:53:33;22.60;99.90
23991;DHT22;12205;50.600;4.608;2022-07-29T09:56:01;22.70;99.90
23991;DHT22;12205;50.600;4.608;2022-07-29T09:58:30;22.70;99.90
23991;DHT22;12205;50.600;4.608;2022-07-29T10:00:59;22.80;99.90
23991;DHT22;12205;50.600;4.608;2022-07-29T10:03:26;22.90;99.90
23991;DHT22;12205;50.600;4.608;2022-07-29T10:06:11;22.90;99.90
23991;DHT22;12205;50.600;4.608;2022-07-29T10:08:41;22.90;99.90
23991;DHT22;12205;50.600;4.608;2022-07-29T10:11:10;23.10;99.90
23991;DHT22;12205;50.600;4.608;2022-07-29T10:13:41;23.10;99.90
23991;DHT22;12205;50.600;4.608;2022-07-29T10:16:10;23.20;99.90
23991;DHT22;12205;50.600;4.608;2022-07-29T10:18:38;23.30;99.90
23991;DHT22;12205;50.600;4.608;2022-07-29T10:21:06;23.40;99.90
23991;DHT22;12205;50.600;4.608;2022-07-29T10:23:34;23.50;99.90
23991;DHT22;12205;50.600;4.608;2022-07-29T10:26:03;23.50;99.90
23991;DHT22;12205;50.600;4.608;2022-07-29T10:28:31;23.40;99.90
23991;DHT22;12205;50.600;4.608;2022-07-29T10:31:01;23.50;99.90
23991;DHT22;12205;50.600;4.608;2022-07-29T10:33:44;23.50;99.90
23991;DHT22;12205;50.600;4.608;2022-07-29T10:36:27;23.70;99.90
23991;DHT22;12205;50.600;4.608;2022-07-29T10:39:12;23.80;99.90
23991;DHT22;12205;50.600;4.608;2022-07-29T10:41:59;23.90;99.90
23991;DHT22;12205;50.600;4.608;2022-07-29T10:44:33;24.10;99.90
23991;DHT22;12205;50.600;4.608;2022-07-29T10:47:01;24.20;99.90
23991;DHT22;12205;50.600;4.608;2022-07-29T10:49:28;24.10;99.90
23991;DHT22;12205;50.600;4.608;2022-07-29T10:52:04;24.30;99.90
23991;DHT22;12205;50.600;4.608;2022-07-29T10:54:49;24.30;99.90
23991;DHT22;12205;50.600;4.608;2022-07-29T10:57:22;24.40;99.90
23991;DHT22;12205;50.600;4.608;2022-07-29T11:02:59;24.80;99.90
23991;DHT22;12205;50.600;4.608;2022-07-29T11:05:26;25.00;99.90
23991;DHT22;12205;50.600;4.608;2022-07-29T11:08:17;25.20;99.90
23991;DHT22;12205;50.600;4.608;2022-07-29T11:10:48;25.40;99.90
23991;DHT22;12205;50.600;4.608;2022-07-29T11:13:50;25.60;99.90
23991;DHT22;12205;50.600;4.608;2022-07-29T11:16:21;25.70;99.90
23991;DHT22;12205;50.600;4.608;2022-07-29T11:19:20;25.70;99.90
23991;DHT22;12205;50.600;4.608;2022-07-29T11:21:48;25.80;99.90
23991;DHT22;12205;50.600;4.608;2022-07-29T11:24:18;26.10;99.90
23991;DHT22;12205;50.600;4.608;2022-07-29T11:27:14;26.40;99.90
23991;DHT22;12205;50.600;4.608;2022-07-29T11:29:54;26.60;99.90
23991;DHT22;12205;50.600;4.608;2022-07-29T11:32:24;26.60;99.90
23991;DHT22;12205;50.600;4.608;2022-07-29T11:35:10;26.50;99.90
23991;DHT22;12205;50.600;4.608;2022-07-29T11:37:39;26.70;99.90
23991;DHT22;12205;50.600;4.608;2022-07-29T11:40:14;27.00;99.90
23991;DHT22;12205;50.600;4.608;2022-07-29T11:42:45;27.10;99.90
23991;DHT22;12205;50.600;4.608;2022-07-29T11:45:15;27.30;99.90
23991;DHT22;12205;50.600;4.608;2022-07-29T11:47:50;27.50;99.90
23991;DHT22;12205;50.600;4.608;2022-07-29T11:50:33;27.90;99.90
23991;DHT22;12205;50.600;4.608;2022-07-29T11:53:09;28.00;99.90
23991;DHT22;12205;50.600;4.608;2022-07-29T11:55:38;28.00;99.90
23991;DHT22;12205;50.600;4.608;2022-07-29T11:58:07;28.00;99.90
23991;DHT22;12205;50.600;4.608;2022-07-29T12:00:38;28.10;99.90
23991;DHT22;12205;50.600;4.608;2022-07-29T12:03:09;28.50;99.90
23991;DHT22;12205;50.600;4.608;2022-07-29T12:05:39;28.70;99.90
23991;DHT22;12205;50.600;4.608;2022-07-29T12:08:10;28.80;99.90
23991;DHT22;12205;50.600;4.608;2022-07-29T12:10:39;28.50;99.10
23991;DHT22;12205;50.600;4.608;2022-07-29T12:13:08;28.40;99.00
23991;DHT22;12205;50.600;4.608;2022-07-29T12:15:37;28.50;98.70
23991;DHT22;12205;50.600;4.608;2022-07-29T12:18:14;28.60;98.50
23991;DHT22;12205;50.600;4.608;2022-07-29T12:20:43;28.80;98.50
23991;DHT22;12205;50.600;4.608;2022-07-29T12:23:11;29.60;96.30
23991;DHT22;12205;50.600;4.608;2022-07-29T12:25:40;30.40;94.80
23991;DHT22;12205;50.600;4.608;2022-07-29T12:28:10;30.70;93.10
23991;DHT22;12205;50.600;4.608;2022-07-29T12:30:42;30.90;92.20
23991;DHT22;12205;50.600;4.608;2022-07-29T12:33:16;30.80;92.00
23991;DHT22;12205;50.600;4.608;2022-07-29T12:35:50;30.50;91.00
23991;DHT22;12205;50.600;4.608;2022-07-29T12:38:19;30.30;90.50
23991;DHT22;12205;50.600;4.608;2022-07-29T12:40:47;30.00;90.80
23991;DHT22;12205;50.600;4.608;2022-07-29T12:43:17;29.80;91.10
23991;DHT22;12205;50.600;4.608;2022-07-29T12:45:48;30.00;90.90
23991;DHT22;12205;50.600;4.608;2022-07-29T12:48:17;30.90;90.70
23991;DHT22;12205;50.600;4.608;2022-07-29T12:51:01;32.20;89.90
23991;DHT22;12205;50.600;4.608;2022-07-29T12:54:02;33.10;83.70
23991;DHT22;12205;50.600;4.608;2022-07-29T12:56:30;33.40;81.40
23991;DHT22;12205;50.600;4.608;2022-07-29T12:59:11;33.90;78.60
23991;DHT22;12205;50.600;4.608;2022-07-29T13:01:45;34.10;75.90
23991;DHT22;12205;50.600;4.608;2022-07-29T13:04:25;34.70;74.30
23991;DHT22;12205;50.600;4.608;2022-07-29T13:06:59;35.20;71.80
23991;DHT22;12205;50.600;4.608;2022-07-29T13:09:37;35.10;69.40
23991;DHT22;12205;50.600;4.608;2022-07-29T13:12:07;35.50;66.90
23991;DHT22;12205;50.600;4.608;2022-07-29T13:14:37;35.70;66.00
23991;DHT22;12205;50.600;4.608;2022-07-29T13:17:08;36.00;63.30
23991;DHT22;12205;50.600;4.608;2022-07-29T13:19:37;34.10;64.20
23991;DHT22;12205;50.600;4.608;2022-07-29T13:22:07;34.10;65.50
23991;DHT22;12205;50.600;4.608;2022-07-29T13:24:45;34.60;64.80
23991;DHT22;12205;50.600;4.608;2022-07-29T13:27:15;34.60;64.50
23991;DHT22;12205;50.600;4.608;2022-07-29T13:29:42;35.20;63.60
23991;DHT22;12205;50.600;4.608;2022-07-29T13:32:12;36.10;61.00
23991;DHT22;12205;50.600;4.608;2022-07-29T13:34:39;36.00;60.20
23991;DHT22;12205;50.600;4.608;2022-07-29T13:37:07;36.60;59.00
23991;DHT22;12205;50.600;4.608;2022-07-29T13:39:34;37.00;58.50
23991;DHT22;12205;50.600;4.608;2022-07-29T13:42:03;37.40;56.30
23991;DHT22;12205;50.600;4.608;2022-07-29T13:44:30;37.30;56.00
23991;DHT22;12205;50.600;4.608;2022-07-29T13:46:57;36.20;54.40
23991;DHT22;12205;50.600;4.608;2022-07-29T13:49:27;34.90;57.10
23991;DHT22;12205;50.600;4.608;2022-07-29T13:51:54;35.20;56.70
23991;DHT22;12205;50.600;4.608;2022-07-29T13:54:21;34.70;55.10
23991;DHT22;12205;50.600;4.608;2022-07-29T13:56:50;33.60;56.10
23991;DHT22;12205;50.600;4.608;2022-07-29T13:59:17;34.10;57.00
23991;DHT22;12205;50.600;4.608;2022-07-29T14:01:44;35.20;55.20
23991;DHT22;12205;50.600;4.608;2022-07-29T14:04:12;36.20;53.80
23991;DHT22;12205;50.600;4.608;2022-07-29T14:06:40;36.90;53.10
23991;DHT22;12205;50.600;4.608;2022-07-29T14:09:08;37.20;52.30
23991;DHT22;12205;50.600;4.608;2022-07-29T14:11:35;36.30;51.30
23991;DHT22;12205;50.600;4.608;2022-07-29T14:14:04;34.80;53.60
23991;DHT22;12205;50.600;4.608;2022-07-29T14:16:31;34.30;55.40
23991;DHT22;12205;50.600;4.608;2022-07-29T14:18:58;34.80;55.50
23991;DHT22;12205;50.600;4.608;2022-07-29T14:21:26;34.50;54.50
23991;DHT22;12205;50.600;4.608;2022-07-29T14:23:54;33.90;54.90
23991;DHT22;12205;50.600;4.608;2022-07-29T14:26:22;32.90;55.30
23991;DHT22;12205;50.600;4.608;2022-07-29T14:28:49;32.50;55.80
23991;DHT22;12205;50.600;4.608;2022-07-29T14:31:18;32.00;56.60
23991;DHT22;12205;50.600;4.608;2022-07-29T14:33:49;31.90;56.90
23991;DHT22;12205;50.600;4.608;2022-07-29T14:36:16;31.70;57.60
23991;DHT22;12205;50.600;4.608;2022-07-29T14:38:44;32.50;56.50
23991;DHT22;12205;50.600;4.608;2022-07-29T14:41:12;33.20;55.30
23991;DHT22;12205;50.600;4.608;2022-07-29T14:43:39;33.00;55.00
23991;DHT22;12205;50.600;4.608;2022-07-29T14:46:07;32.70;55.20
23991;DHT22;12205;50.600;4.608;2022-07-29T14:48:34;32.00;55.80
23991;DHT22;12205;50.600;4.608;2022-07-29T14:51:01;31.20;57.70
23991;DHT22;12205;50.600;4.608;2022-07-29T14:53:29;30.50;58.80
23991;DHT22;12205;50.600;4.608;2022-07-29T14:55:57;30.40;59.30
23991;DHT22;12205;50.600;4.608;2022-07-29T14:58:25;31.30;58.20
23991;DHT22;12205;50.600;4.608;2022-07-29T15:00:53;31.50;57.80
23991;DHT22;12205;50.600;4.608;2022-07-29T15:03:21;30.90;58.50
23991;DHT22;12205;50.600;4.608;2022-07-29T15:05:49;30.40;59.40
23991;DHT22;12205;50.600;4.608;2022-07-29T15:08:17;31.30;59.10
23991;DHT22;12205;50.600;4.608;2022-07-29T15:10:44;31.80;57.70
23991;DHT22;12205;50.600;4.608;2022-07-29T15:13:12;32.60;57.10
23991;DHT22;12205;50.600;4.608;2022-07-29T15:15:40;33.60;56.00
23991;DHT22;12205;50.600;4.608;2022-07-29T15:18:08;34.70;54.30
23991;DHT22;12205;50.600;4.608;2022-07-29T15:20:35;35.80;53.90
23991;DHT22;12205;50.600;4.608;2022-07-29T15:23:03;36.70;52.50
23991;DHT22;12205;50.600;4.608;2022-07-29T15:25:30;37.00;52.00
23991;DHT22;12205;50.600;4.608;2022-07-29T15:27:58;36.40;52.10
23991;DHT22;12205;50.600;4.608;2022-07-29T15:30:30;35.40;52.20
23991;DHT22;12205;50.600;4.608;2022-07-29T15:32:58;34.80;52.10
23991;DHT22;12205;50.600;4.608;2022-07-29T15:35:26;34.50;52.50
23991;DHT22;12205;50.600;4.608;2022-07-29T15:37:53;34.30;53.40
23991;DHT22;12205;50.600;4.608;2022-07-29T15:40:20;34.60;53.70
23991;DHT22;12205;50.600;4.608;2022-07-29T15:42:48;34.10;53.40
23991;DHT22;12205;50.600;4.608;2022-07-29T15:45:15;33.70;54.30
23991;DHT22;12205;50.600;4.608;2022-07-29T15:47:42;33.80;54.00
23991;DHT22;12205;50.600;4.608;2022-07-29T15:50:11;33.90;53.90
23991;DHT22;12205;50.600;4.608;2022-07-29T15:52:40;33.40;53.70
23991;DHT22;12205;50.600;4.608;2022-07-29T15:55:08;32.80;54.20
23991;DHT22;12205;50.600;4.608;2022-07-29T15:57:36;32.40;54.60